createdAt,value
2023-03-11T00:00:34.384Z,1.30
2023-03-11T00:03:02.823Z,1.58
2023-03-11T00:05:32.324Z,1.30
2023-03-11T00:07:59.889Z,1.10
2023-03-11T00:10:30.452Z,1.42
2023-03-11T00:12:58.243Z,1.20
2023-03-11T00:15:26.118Z,1.25
2023-03-11T00:17:53.130Z,1.10
2023-03-11T00:20:23.415Z,1.55
2023-03-11T00:22:53.939Z,1.23
2023-03-11T00:25:22.644Z,1.38
2023-03-11T00:27:49.723Z,1.30
2023-03-11T00:30:22.128Z,1.37
2023-03-11T00:32:50.772Z,1.30
2023-03-11T00:35:21.200Z,1.50
2023-03-11T00:37:49.091Z,1.70
2023-03-11T00:40:19.414Z,1.40
2023-03-11T00:42:46.756Z,1.50
2023-03-11T00:45:14.831Z,1.42
2023-03-11T00:47:41.897Z,1.40
2023-03-11T00:50:12.199Z,1.40
2023-03-11T00:52:39.243Z,1.45
2023-03-11T00:55:07.656Z,1.60
2023-03-11T00:57:35.672Z,1.30
2023-03-11T01:00:04.103Z,1.60
2023-03-11T01:02:30.916Z,1.38
2023-03-11T01:04:57.694Z,1.30
2023-03-11T01:07:24.500Z,1.40
2023-03-11T01:09:51.427Z,1.38
2023-03-11T01:12:18.221Z,1.33
2023-03-11T01:14:45.086Z,1.60
2023-03-11T01:17:11.934Z,1.38
2023-03-11T01:19:38.705Z,1.40
2023-03-11T01:22:05.658Z,1.30
2023-03-11T01:24:34.473Z,1.38
2023-03-11T01:27:01.316Z,1.30
2023-03-11T01:29:28.107Z,1.17
2023-03-11T01:31:56.387Z,1.40
2023-03-11T01:34:27.353Z,1.30
2023-03-11T01:36:54.141Z,1.33
2023-03-11T01:39:20.959Z,1.30
2023-03-11T01:41:48.305Z,1.80
2023-03-11T01:44:15.135Z,1.30
2023-03-11T01:46:52.184Z,1.27
2023-03-11T01:49:22.856Z,1.70
2023-03-11T01:51:53.327Z,1.67
2023-03-11T01:54:24.092Z,1.90
2023-03-11T01:56:51.816Z,1.30
2023-03-11T01:59:31.855Z,1.40
2023-03-11T02:02:14.831Z,1.60
2023-03-11T02:05:09.550Z,1.38
2023-03-11T02:07:41.070Z,1.45
2023-03-11T02:10:13.499Z,1.60
2023-03-11T02:12:41.246Z,1.30
2023-03-11T02:15:09.819Z,1.73
2023-03-11T02:17:37.867Z,1.30
2023-03-11T02:20:21.872Z,1.35
2023-03-11T02:22:49.779Z,1.43
2023-03-11T02:25:35.817Z,1.40
2023-03-11T02:28:07.605Z,1.50
2023-03-11T02:30:35.834Z,1.38
2023-03-11T02:33:03.587Z,1.55
2023-03-11T02:35:31.530Z,1.60
2023-03-11T02:37:59.869Z,1.60
2023-03-11T02:40:39.268Z,1.65
2023-03-11T02:43:10.608Z,1.42
2023-03-11T02:45:41.504Z,1.70
2023-03-11T02:48:11.787Z,1.50
2023-03-11T02:50:40.318Z,1.58
2023-03-11T02:53:07.955Z,1.65
2023-03-11T02:55:34.831Z,1.40
2023-03-11T02:58:01.668Z,1.50
2023-03-11T03:00:28.945Z,2.03
2023-03-11T03:03:01.508Z,1.52
2023-03-11T03:05:29.242Z,1.58
2023-03-11T03:07:58.028Z,1.70
2023-03-11T03:10:24.997Z,1.70
2023-03-11T03:12:51.827Z,1.47
2023-03-11T03:15:18.980Z,1.60
2023-03-11T03:17:46.545Z,1.60
2023-03-11T03:20:14.543Z,1.40
2023-03-11T03:22:46.948Z,1.80
2023-03-11T03:25:17.006Z,1.50
2023-03-11T03:27:44.037Z,1.60
2023-03-11T03:30:11.719Z,1.70
2023-03-11T03:32:39.600Z,1.67
2023-03-11T03:35:10.668Z,1.60
2023-03-11T03:37:56.475Z,1.70
2023-03-11T03:40:23.823Z,1.60
2023-03-11T03:42:52.378Z,1.63
2023-03-11T03:45:20.060Z,1.67
2023-03-11T03:47:48.535Z,1.70
2023-03-11T03:50:15.396Z,1.80
2023-03-11T03:52:46.334Z,1.40
2023-03-11T03:55:13.317Z,1.60
2023-03-11T03:57:40.740Z,1.60
2023-03-11T04:00:11.110Z,1.67
2023-03-11T04:02:40.615Z,1.53
2023-03-11T04:05:13.047Z,1.52
2023-03-11T04:07:41.450Z,1.65
2023-03-11T04:10:09.160Z,1.38
2023-03-11T04:12:36.054Z,1.42
2023-03-11T04:15:03.202Z,1.50
2023-03-11T04:17:30.032Z,1.42
2023-03-11T04:19:57.054Z,1.70
2023-03-11T04:22:23.997Z,1.58
2023-03-11T04:24:50.974Z,1.77
2023-03-11T04:27:19.219Z,1.40
2023-03-11T04:29:46.239Z,1.70
2023-03-11T04:32:13.145Z,1.83
2023-03-11T04:34:41.998Z,1.60
2023-03-11T04:37:09.361Z,1.75
2023-03-11T04:39:37.027Z,1.80
2023-03-11T04:42:04.237Z,1.80
2023-03-11T04:44:35.787Z,1.85
2023-03-11T04:47:03.777Z,1.70
2023-03-11T04:49:30.980Z,1.73
2023-03-11T04:51:57.940Z,1.60
2023-03-11T04:54:25.899Z,1.65
2023-03-11T04:56:53.357Z,1.80
2023-03-11T04:59:20.644Z,1.83
2023-03-11T05:01:48.976Z,1.70
2023-03-11T05:04:17.008Z,2.00
2023-03-11T05:06:43.861Z,1.50
2023-03-11T05:09:12.803Z,1.67
2023-03-11T05:11:40.693Z,1.60
2023-03-11T05:14:07.953Z,1.65
2023-03-11T05:16:35.737Z,1.90
2023-03-11T05:19:24.331Z,1.77
2023-03-11T05:21:51.578Z,1.65
2023-03-11T05:24:19.018Z,1.85
2023-03-11T05:26:48.482Z,1.77
2023-03-11T05:29:16.282Z,1.80
2023-03-11T05:31:43.491Z,1.60
2023-03-11T05:34:10.686Z,1.70
2023-03-11T05:36:37.776Z,1.70
2023-03-11T05:39:04.879Z,1.80
2023-03-11T05:41:33.985Z,1.90
2023-03-11T05:44:01.418Z,1.80
2023-03-11T05:46:28.445Z,1.95
2023-03-11T05:48:56.078Z,1.80
2023-03-11T05:51:23.303Z,1.70
2023-03-11T05:53:50.256Z,1.80
2023-03-11T05:56:25.102Z,1.90
2023-03-11T05:58:53.847Z,1.80
2023-03-11T06:01:20.873Z,1.70
2023-03-11T06:03:48.153Z,1.65
2023-03-11T06:06:15.172Z,1.70
2023-03-11T06:08:46.174Z,1.73
2023-03-11T06:11:13.118Z,1.90
2023-03-11T06:13:40.414Z,1.80
2023-03-11T06:16:09.826Z,1.90
2023-03-11T06:18:36.949Z,1.87
2023-03-11T06:21:04.961Z,1.90
2023-03-11T06:23:33.034Z,1.75
2023-03-11T06:26:04.218Z,1.52
2023-03-11T06:28:36.250Z,1.70
2023-03-11T06:31:21.982Z,1.77
2023-03-11T06:33:49.026Z,1.70
2023-03-11T06:36:18.136Z,1.90
2023-03-11T06:38:46.727Z,1.90
2023-03-11T06:41:14.855Z,1.90
2023-03-11T06:43:42.158Z,1.70
2023-03-11T06:46:10.968Z,1.70
2023-03-11T06:48:39.467Z,1.90
2023-03-11T06:51:06.449Z,2.10
2023-03-11T06:53:34.342Z,1.98
2023-03-11T06:56:08.130Z,2.07
2023-03-11T06:58:42.823Z,2.03
2023-03-11T07:01:24.348Z,2.10
2023-03-11T07:03:52.860Z,2.13
2023-03-11T07:06:24.733Z,2.10
2023-03-11T07:08:54.229Z,2.03
2023-03-11T07:11:23.613Z,2.30
2023-03-11T07:13:54.452Z,2.25
2023-03-11T07:16:27.017Z,2.30
2023-03-11T07:19:02.861Z,2.10
2023-03-11T07:21:31.873Z,1.97
2023-03-11T07:24:00.978Z,1.98
2023-03-11T07:26:29.377Z,1.98
2023-03-11T07:28:57.548Z,2.00
2023-03-11T07:31:31.717Z,2.00
2023-03-11T07:34:01.064Z,2.03
2023-03-11T07:36:29.231Z,1.90
2023-03-11T07:39:04.246Z,2.15
2023-03-11T07:41:34.246Z,2.03
2023-03-11T07:44:02.958Z,2.17
2023-03-11T07:46:31.351Z,2.00
2023-03-11T07:48:58.796Z,2.22
2023-03-11T07:51:28.404Z,2.17
2023-03-11T07:53:56.994Z,2.53
2023-03-11T07:56:25.836Z,2.10
2023-03-11T07:58:53.201Z,1.90
2023-03-11T08:01:22.878Z,1.92
2023-03-11T08:03:51.862Z,2.33
2023-03-11T08:06:24.625Z,2.30
2023-03-11T08:08:51.774Z,2.00
2023-03-11T08:11:20.670Z,2.13
2023-03-11T08:13:48.244Z,1.90
2023-03-11T08:16:18.260Z,1.95
2023-03-11T08:18:47.342Z,1.95
2023-03-11T08:21:16.636Z,2.00
2023-03-11T08:23:44.114Z,1.83
2023-03-11T08:26:14.004Z,1.73
2023-03-11T08:28:41.112Z,1.90
2023-03-11T08:31:24.157Z,1.92
2023-03-11T08:33:53.287Z,1.90
2023-03-11T08:36:20.929Z,1.97
2023-03-11T08:38:48.075Z,1.90
2023-03-11T08:41:15.803Z,2.10
2023-03-11T08:43:43.061Z,2.10
2023-03-11T08:46:25.070Z,2.17
2023-03-11T08:48:52.522Z,1.90
2023-03-11T08:51:20.128Z,1.90
2023-03-11T08:53:47.960Z,1.90
2023-03-11T08:56:14.807Z,2.10
2023-03-11T08:58:41.578Z,1.70
2023-03-11T09:01:11.452Z,1.50
2023-03-11T09:03:38.971Z,1.60
2023-03-11T09:06:09.437Z,1.60
2023-03-11T09:08:36.658Z,1.60
2023-03-11T09:11:03.671Z,1.70
2023-03-11T09:13:30.564Z,1.70
2023-03-11T09:15:57.585Z,2.10
2023-03-11T09:18:24.509Z,1.77
2023-03-11T09:20:51.585Z,1.90
2023-03-11T09:23:18.718Z,2.10
2023-03-11T09:25:45.546Z,1.93
2023-03-11T09:28:12.356Z,2.00
2023-03-11T09:30:39.299Z,2.00
2023-03-11T09:33:06.421Z,2.10
2023-03-11T09:35:33.535Z,2.20
2023-03-11T09:38:00.686Z,2.07
2023-03-11T09:40:32.847Z,2.10
2023-03-11T09:42:59.562Z,2.10
2023-03-11T09:45:32.284Z,2.05
2023-03-11T09:48:37.129Z,1.85
2023-03-11T09:51:15.631Z,2.23
2023-03-11T09:53:44.823Z,1.90
2023-03-11T09:56:22.405Z,1.70
2023-03-11T09:59:15.594Z,1.73
2023-03-11T10:01:50.061Z,1.80
2023-03-11T10:04:20.299Z,1.70
2023-03-11T10:06:47.997Z,1.67
2023-03-11T10:09:52.622Z,1.85
2023-03-11T10:12:32.034Z,1.60
2023-03-11T10:15:06.229Z,1.83
2023-03-11T10:17:44.946Z,1.70
2023-03-11T10:20:22.650Z,1.80
2023-03-11T10:23:26.067Z,1.70
2023-03-11T10:26:20.459Z,1.60
2023-03-11T10:29:00.053Z,1.67
2023-03-11T10:31:33.364Z,1.67
2023-03-11T10:34:15.517Z,1.50
2023-03-11T10:37:01.889Z,1.80
2023-03-11T10:39:29.439Z,1.60
2023-03-11T10:42:01.923Z,1.58
2023-03-11T10:44:34.307Z,1.40
2023-03-11T10:47:02.200Z,1.50
2023-03-11T10:49:29.757Z,1.60
2023-03-11T10:51:57.261Z,1.55
2023-03-11T10:54:39.625Z,1.63
2023-03-11T10:57:22.531Z,1.40
2023-03-11T11:00:01.018Z,1.60
2023-03-11T11:02:32.497Z,1.60
2023-03-11T11:05:17.889Z,1.55
2023-03-11T11:07:47.633Z,1.65
2023-03-11T11:10:21.932Z,1.60
2023-03-11T11:13:15.274Z,1.60
2023-03-11T11:16:06.283Z,1.50
2023-03-11T11:18:55.779Z,1.70
2023-03-11T11:21:33.542Z,1.40
2023-03-11T11:24:15.646Z,1.60
2023-03-11T11:26:42.752Z,1.75
2023-03-11T11:29:15.054Z,1.80
2023-03-11T11:31:44.769Z,1.73
2023-03-11T11:34:31.520Z,1.77
2023-03-11T11:37:05.350Z,1.70
2023-03-11T11:39:58.259Z,1.65
2023-03-11T11:42:28.320Z,1.65
2023-03-11T11:45:04.470Z,1.52
2023-03-11T11:47:36.074Z,1.67
2023-03-11T11:50:07.218Z,1.43
2023-03-11T11:53:01.752Z,1.52
2023-03-11T11:55:30.742Z,1.60
2023-03-11T11:57:57.866Z,1.70
2023-03-11T12:00:37.901Z,1.40
2023-03-11T12:03:16.479Z,1.50
2023-03-11T12:06:03.096Z,1.40
2023-03-11T12:09:00.577Z,1.58
2023-03-11T12:11:37.162Z,1.77
2023-03-11T12:14:49.226Z,1.70
2023-03-11T12:17:23.631Z,1.80
2023-03-11T12:20:03.629Z,1.65
2023-03-11T12:22:57.791Z,1.50
2023-03-11T12:25:24.905Z,1.70
2023-03-11T12:28:18.933Z,1.50
2023-03-11T12:30:53.311Z,1.57
2023-03-11T12:33:27.892Z,1.40
2023-03-11T12:35:58.058Z,1.73
2023-03-11T12:38:38.727Z,1.70
2023-03-11T12:41:14.925Z,1.67
2023-03-11T12:43:41.654Z,1.67
2023-03-11T12:46:14.382Z,1.50
2023-03-11T12:48:46.542Z,1.70
2023-03-11T12:51:37.412Z,1.50
2023-03-11T12:54:34.398Z,1.67
2023-03-11T12:57:16.830Z,1.60
2023-03-11T13:00:07.047Z,1.50
2023-03-11T13:02:53.175Z,1.73
2023-03-11T13:05:29.605Z,1.45
2023-03-11T13:08:21.501Z,1.50
2023-03-11T13:10:56.348Z,1.30
2023-03-11T13:13:33.757Z,1.48
2023-03-11T13:16:12.937Z,1.67
2023-03-11T13:18:41.985Z,1.60
2023-03-11T13:21:38.184Z,1.88
2023-03-11T13:24:22.683Z,1.60
2023-03-11T13:27:09.917Z,1.60
2023-03-11T13:29:52.279Z,1.50
2023-03-11T13:32:34.089Z,1.95
2023-03-11T13:35:32.725Z,1.70
2023-03-11T13:38:30.138Z,1.80
2023-03-11T13:40:57.194Z,1.77
2023-03-11T13:43:26.330Z,1.83
2023-03-11T13:46:08.278Z,1.42
2023-03-11T13:48:45.352Z,1.70
2023-03-11T13:51:22.112Z,1.70
2023-03-11T13:53:56.280Z,1.70
2023-03-11T13:56:38.385Z,1.60
2023-03-11T13:59:27.755Z,1.60
2023-03-11T14:02:01.593Z,1.58
2023-03-11T14:04:37.576Z,1.80
2023-03-11T14:07:35.448Z,1.30
2023-03-11T14:10:17.420Z,1.60
2023-03-11T14:12:44.924Z,1.88
2023-03-11T14:15:24.133Z,1.48
2023-03-11T14:17:52.648Z,1.60
2023-03-11T14:20:22.477Z,1.48
2023-03-11T14:22:55.157Z,1.63
2023-03-11T14:25:28.169Z,1.52
2023-03-11T14:28:01.096Z,1.50
2023-03-11T14:30:30.395Z,1.60
2023-03-11T14:33:06.529Z,1.70
2023-03-11T14:35:34.634Z,1.60
2023-03-11T14:38:01.682Z,1.50
2023-03-11T14:40:34.160Z,1.50
2023-03-11T14:43:07.878Z,1.50
2023-03-11T14:45:40.418Z,1.73
2023-03-11T14:48:41.755Z,1.90
2023-03-11T14:51:15.631Z,1.60
2023-03-11T14:54:15.538Z,1.70
2023-03-11T14:56:47.920Z,1.70
2023-03-11T14:59:26.983Z,1.70
2023-03-11T15:01:57.971Z,1.60
2023-03-11T15:04:33.287Z,1.70
2023-03-11T15:07:01.770Z,1.85
2023-03-11T15:09:29.582Z,1.97
2023-03-11T15:11:59.243Z,1.70
2023-03-11T15:14:28.745Z,2.08
2023-03-11T15:17:08.432Z,1.80
2023-03-11T15:19:35.264Z,1.83
2023-03-11T15:22:27.368Z,1.70
2023-03-11T15:24:59.841Z,1.50
2023-03-11T15:27:37.202Z,1.90
2023-03-11T15:30:19.130Z,1.50
2023-03-11T15:32:46.867Z,1.33
2023-03-11T15:35:18.994Z,1.30
2023-03-11T15:37:47.705Z,1.10
2023-03-11T15:40:42.368Z,1.20
2023-03-11T15:43:23.930Z,1.20
2023-03-11T15:45:55.683Z,1.40
2023-03-11T15:48:23.564Z,1.17
2023-03-11T15:50:56.349Z,1.25
2023-03-11T15:53:25.575Z,1.20
2023-03-11T15:55:54.440Z,1.20
2023-03-11T15:58:22.084Z,1.10
2023-03-11T16:00:56.192Z,1.10
2023-03-11T16:03:23.952Z,1.20
2023-03-11T16:05:51.276Z,1.20
2023-03-11T16:08:18.254Z,1.10
2023-03-11T16:10:45.263Z,1.30
2023-03-11T16:13:16.026Z,1.20
2023-03-11T16:15:43.487Z,1.30
2023-03-11T16:18:10.979Z,1.30
2023-03-11T16:20:47.474Z,1.27
2023-03-11T16:23:26.324Z,1.30
2023-03-11T16:26:04.823Z,1.40
2023-03-11T16:28:31.724Z,1.30
2023-03-11T16:30:58.722Z,1.67
2023-03-11T16:33:26.037Z,1.67
2023-03-11T16:35:52.885Z,1.30
2023-03-11T16:38:23.013Z,2.10
2023-03-11T16:41:08.140Z,1.80
2023-03-11T16:43:35.128Z,1.10
2023-03-11T16:46:02.268Z,1.30
2023-03-11T16:48:29.216Z,1.10
2023-03-11T16:50:56.058Z,1.33
2023-03-11T16:53:25.103Z,1.40
2023-03-11T16:55:52.878Z,1.58
2023-03-11T16:58:19.807Z,1.33
2023-03-11T17:00:47.120Z,1.27
2023-03-11T17:03:17.173Z,1.20
2023-03-11T17:05:44.360Z,1.30
2023-03-11T17:08:12.011Z,1.25
2023-03-11T17:10:43.414Z,1.20
2023-03-11T17:13:12.698Z,1.30
2023-03-11T17:15:42.217Z,1.50
2023-03-11T17:18:09.090Z,1.60
2023-03-11T17:20:38.061Z,1.55
2023-03-11T17:23:04.932Z,1.52
2023-03-11T17:25:31.779Z,1.60
2023-03-11T17:27:58.840Z,1.50
2023-03-11T17:30:36.427Z,1.40
2023-03-11T17:33:03.902Z,1.40
2023-03-11T17:35:30.718Z,1.60
2023-03-11T17:37:57.593Z,1.55
2023-03-11T17:40:26.906Z,1.30
2023-03-11T17:42:53.898Z,1.40
2023-03-11T17:45:20.784Z,1.40
2023-03-11T17:47:47.549Z,1.33
2023-03-11T17:50:14.490Z,1.85
2023-03-11T17:52:41.341Z,1.50
2023-03-11T17:55:08.713Z,1.65
2023-03-11T17:57:44.768Z,1.80
2023-03-11T18:00:14.643Z,1.60
2023-03-11T18:02:41.764Z,1.80
2023-03-11T18:05:09.398Z,2.30
2023-03-11T18:07:39.080Z,2.33
2023-03-11T18:10:09.399Z,2.20
2023-03-11T18:12:36.630Z,2.15
2023-03-11T18:15:07.184Z,2.30
2023-03-11T18:17:37.315Z,2.63
2023-03-11T18:20:05.068Z,2.95
2023-03-11T18:22:34.864Z,3.25
2023-03-11T18:25:02.097Z,4.28
2023-03-11T18:27:28.924Z,3.85
2023-03-11T18:29:55.769Z,3.30
2023-03-11T18:32:24.639Z,3.97
2023-03-11T18:34:51.497Z,3.78
2023-03-11T18:37:18.411Z,3.60
2023-03-11T18:39:45.234Z,3.80
2023-03-11T18:42:14.162Z,3.77
2023-03-11T18:44:41.787Z,4.00
2023-03-11T18:47:08.594Z,3.80
2023-03-11T18:49:35.456Z,4.10
2023-03-11T18:52:02.310Z,3.90
2023-03-11T18:54:29.151Z,4.30
2023-03-11T18:56:55.905Z,4.40
2023-03-11T18:59:22.745Z,4.13
2023-03-11T19:01:50.892Z,5.13
2023-03-11T19:04:17.856Z,5.13
2023-03-11T19:06:44.681Z,5.00
2023-03-11T19:09:12.115Z,5.47
2023-03-11T19:11:38.997Z,5.70
2023-03-11T19:14:05.795Z,6.10
2023-03-11T19:16:32.633Z,6.47
2023-03-11T19:19:00.365Z,5.87
2023-03-11T19:21:27.664Z,6.30
2023-03-11T19:23:56.498Z,6.57
2023-03-11T19:26:41.543Z,6.93
2023-03-11T19:29:10.515Z,7.13
2023-03-11T19:31:37.433Z,7.20
2023-03-11T19:34:04.547Z,7.50
2023-03-11T19:36:31.512Z,7.72
2023-03-11T19:38:58.286Z,8.45
2023-03-11T19:41:25.202Z,10.40
2023-03-11T19:43:52.327Z,12.00
2023-03-11T19:46:21.214Z,12.00
2023-03-11T19:48:48.162Z,12.05
2023-03-11T19:51:17.142Z,12.98
2023-03-11T19:53:44.087Z,12.80
2023-03-11T19:56:10.842Z,12.63
2023-03-11T19:58:38.040Z,12.48
2023-03-11T20:01:05.097Z,11.95
2023-03-11T20:03:32.033Z,10.68
2023-03-11T20:06:05.350Z,10.15
2023-03-11T20:08:36.719Z,9.93
2023-03-11T20:11:05.669Z,9.70
2023-03-11T20:13:34.527Z,8.88
2023-03-11T20:16:10.362Z,9.15
2023-03-11T20:18:37.432Z,8.10
2023-03-11T20:21:08.873Z,7.23
2023-03-11T20:23:36.616Z,7.13
2023-03-11T20:26:08.609Z,7.15
2023-03-11T20:28:35.696Z,7.50
2023-03-11T20:31:17.149Z,7.47
2023-03-11T20:33:44.239Z,7.13
2023-03-11T20:36:15.092Z,7.93
2023-03-11T20:38:42.287Z,7.20
2023-03-11T20:41:10.424Z,7.57
2023-03-11T20:43:38.406Z,7.70
2023-03-11T20:46:06.675Z,7.77
2023-03-11T20:48:34.222Z,8.95
2023-03-11T20:51:03.447Z,8.63
2023-03-11T20:53:31.135Z,9.13
2023-03-11T20:55:59.263Z,9.45
2023-03-11T20:58:26.587Z,9.00
2023-03-11T21:00:53.491Z,9.02
2023-03-11T21:03:20.573Z,8.90
2023-03-11T21:05:47.623Z,9.60
2023-03-11T21:08:14.571Z,9.30
2023-03-11T21:10:41.556Z,9.30
2023-03-11T21:13:08.610Z,9.77
2023-03-11T21:15:38.266Z,9.18
2023-03-11T21:18:06.982Z,9.25
2023-03-11T21:20:33.950Z,9.07
2023-03-11T21:23:00.747Z,8.80
2023-03-11T21:25:28.491Z,9.23
2023-03-11T21:27:55.247Z,8.18
2023-03-11T21:30:22.173Z,7.78
2023-03-11T21:32:49.268Z,8.10
2023-03-11T21:35:16.345Z,8.00
2023-03-11T21:37:43.237Z,7.57
2023-03-11T21:40:11.041Z,7.82
2023-03-11T21:42:37.975Z,7.40
2023-03-11T21:45:05.364Z,7.45
2023-03-11T21:47:32.313Z,7.57
2023-03-11T21:49:59.532Z,6.97
2023-03-11T21:52:26.724Z,6.10
2023-03-11T21:54:53.533Z,6.53
2023-03-11T21:57:20.304Z,6.28
2023-03-11T21:59:47.240Z,5.77
2023-03-11T22:02:16.058Z,6.22
2023-03-11T22:04:43.630Z,6.03
2023-03-11T22:07:10.562Z,6.47
2023-03-11T22:09:37.560Z,5.97
2023-03-11T22:12:04.766Z,5.70
2023-03-11T22:14:31.653Z,5.70
2023-03-11T22:16:58.399Z,6.38
2023-03-11T22:19:25.334Z,5.88
2023-03-11T22:21:52.407Z,5.85
2023-03-11T22:24:19.304Z,5.47
2023-03-11T22:26:46.162Z,6.07
2023-03-11T22:29:13.760Z,5.80
2023-03-11T22:31:40.896Z,5.40
2023-03-11T22:34:07.878Z,5.65
2023-03-11T22:36:34.711Z,5.57
2023-03-11T22:39:04.199Z,5.95
2023-03-11T22:41:31.812Z,5.60
2023-03-11T22:43:58.737Z,6.35
2023-03-11T22:46:26.269Z,6.13
2023-03-11T22:48:53.007Z,5.97
2023-03-11T22:51:19.739Z,6.07
2023-03-11T22:53:47.176Z,6.50
2023-03-11T22:56:15.844Z,6.28
2023-03-11T22:58:43.225Z,6.50
2023-03-11T23:01:10.872Z,6.40
2023-03-11T23:03:38.925Z,7.22
2023-03-11T23:06:08.740Z,6.90
2023-03-11T23:08:36.255Z,6.78
2023-03-11T23:11:09.281Z,6.70
2023-03-11T23:13:36.516Z,6.93
2023-03-11T23:16:15.357Z,7.28
2023-03-11T23:18:43.691Z,7.85
2023-03-11T23:21:18.877Z,7.70
2023-03-11T23:23:46.347Z,8.63
2023-03-11T23:26:14.097Z,8.00
2023-03-11T23:28:42.006Z,8.30
2023-03-11T23:31:10.678Z,8.70
2023-03-11T23:33:38.730Z,8.38
2023-03-11T23:36:09.006Z,9.00
2023-03-11T23:38:36.734Z,8.53
2023-03-11T23:41:12.293Z,8.27
2023-03-11T23:43:40.055Z,8.48
2023-03-11T23:46:07.961Z,8.07
2023-03-11T23:48:35.188Z,8.20
2023-03-11T23:51:02.484Z,7.93
2023-03-11T23:53:31.573Z,7.93
2023-03-11T23:55:58.670Z,7.43
2023-03-11T23:58:25.896Z,7.13
